TimeMST,TemperatureF,Dew PointF,Humidity,Sea Level PressureIn,VisibilityMPH,Wind Direction,Wind SpeedMPH,Gust SpeedMPH,PrecipitationIn,Events,Conditions,WindDirDegrees,DateUTC
12:54 AM,30.0,21.9,72,29.95,10.0,WSW,6.9,-,N/A,,Mostly Cloudy,240,2013-02-05 07:54:00
1:54 AM,30.0,23.0,75,29.95,10.0,SSW,8.1,-,N/A,,Overcast,210,2013-02-05 08:54:00
2:54 AM,30.9,24.1,76,29.95,10.0,WSW,9.2,-,N/A,,Overcast,250,2013-02-05 09:54:00
3:54 AM,28.9,23.0,78,29.95,10.0,SSW,9.2,-,N/A,,Mostly Cloudy,210,2013-02-05 10:54:00
4:54 AM,30.0,21.9,72,29.94,10.0,SSW,4.6,-,N/A,,Clear,210,2013-02-05 11:54:00
5:54 AM,28.0,21.0,75,29.95,10.0,Calm,Calm,-,N/A,,Clear,0,2013-02-05 12:54:00
6:54 AM,32.0,21.0,64,29.92,10.0,Calm,Calm,-,N/A,,Clear,0,2013-02-05 13:54:00
7:54 AM,26.1,19.9,78,29.94,10.0,ESE,6.9,-,N/A,,Clear,110,2013-02-05 14:54:00
8:54 AM,28.0,21.0,75,29.93,10.0,SE,5.8,-,N/A,,Overcast,130,2013-02-05 15:54:00
9:54 AM,32.0,24.1,73,29.90,10.0,Calm,Calm,-,N/A,,Overcast,0,2013-02-05 16:54:00
10:54 AM,37.9,26.1,62,29.87,10.0,WSW,3.5,-,N/A,,Clear,240,2013-02-05 17:54:00
11:54 AM,39.0,26.1,60,29.83,10.0,SW,15.0,-,N/A,,Mostly Cloudy,230,2013-02-05 18:54:00
12:54 PM,39.9,27.0,60,29.81,10.0,SW,16.1,-,N/A,,Scattered Clouds,230,2013-02-05 19:54:00
1:54 PM,39.9,28.0,63,29.77,10.0,SW,16.1,-,N/A,,Mostly Cloudy,230,2013-02-05 20:54:00
2:54 PM,42.1,27.0,55,29.76,10.0,NW,4.6,-,0.00,,Overcast,310,2013-02-05 21:54:00
3:54 PM,37.9,28.9,70,29.77,10.0,SW,17.3,-,N/A,,Scattered Clouds,230,2013-02-05 22:54:00
4:54 PM,37.9,28.9,70,29.76,10.0,SW,19.6,-,N/A,,Clear,230,2013-02-05 23:54:00
5:54 PM,37.9,28.0,68,29.76,10.0,SW,17.3,-,N/A,,Mostly Cloudy,230,2013-02-06 00:54:00
6:54 PM,37.0,28.0,70,29.75,10.0,SW,11.5,-,N/A,,Mostly Cloudy,230,2013-02-06 01:54:00
7:54 PM,36.0,27.0,70,29.76,10.0,WSW,11.5,-,N/A,,Clear,240,2013-02-06 02:54:00
8:54 PM,34.0,26.1,73,29.76,10.0,West,11.5,-,N/A,,Partly Cloudy,260,2013-02-06 03:54:00
9:54 PM,34.0,26.1,73,29.75,10.0,SW,11.5,-,N/A,,Overcast,220,2013-02-06 04:54:00
10:54 PM,30.0,23.0,75,29.75,10.0,SW,11.5,-,N/A,,Clear,230,2013-02-06 05:54:00